Time;durP1;ratioP1;P1;durP2;ratioP2;P2;SDS_P1;SDS_P2;PMS_P1;PMS_P2;Temp;Humidity;BMP_temperature;BMP_pressure;BME280_temperature;BME280_humidity;BME280_pressure;Samples;Min_cycle;Max_cycle;Signal;HPM_P1;HPM_P2
2023/06/12 00:01:26;;;;;;;8.30;2.10;;;;;;;14.37;57.65;100677.93;110055;1272;22193;-59
2023/06/12 00:03:57;;;;;;;9.30;2.70;;;;;;;14.34;57.97;100676.57;110099;1279;22216;-59
2023/06/12 00:06:28;;;;;;;12.00;3.00;;;;;;;14.33;57.93;100672.77;110091;1274;22236;-59
2023/06/12 00:09:00;;;;;;;9.30;2.20;;;;;;;14.31;58.29;100668.98;110090;1273;22244;-59
2023/06/12 00:11:31;;;;;;;9.00;2.60;;;;;;;14.30;58.64;100670.24;110100;1271;22435;-60
2023/06/12 00:14:02;;;;;;;8.10;2.20;;;;;;;14.27;58.53;100675.80;110132;1268;23150;-60
2023/06/12 00:16:33;;;;;;;7.00;2.20;;;;;;;14.22;58.85;100676.67;110123;1264;22222;-58
2023/06/12 00:19:04;;;;;;;10.90;2.50;;;;;;;14.17;58.92;100676.90;110090;1274;22224;-62
2023/06/12 00:21:35;;;;;;;9.80;2.30;;;;;;;14.12;59.32;100679.00;110097;1264;22388;-59
2023/06/12 00:24:08;;;;;;;10.10;2.50;;;;;;;14.08;59.43;100679.63;110102;1268;22204;-58
2023/06/12 00:26:40;;;;;;;14.00;2.60;;;;;;;14.03;59.60;100679.66;110075;1273;22182;-60
2023/06/12 00:29:11;;;;;;;12.40;2.60;;;;;;;14.00;59.74;100681.58;110132;1267;22304;-60
2023/06/12 00:31:42;;;;;;;12.00;2.80;;;;;;;13.96;59.77;100675.75;110059;1268;22222;-60
2023/06/12 00:34:13;;;;;;;9.00;2.00;;;;;;;13.93;60.25;100676.98;110090;1271;22320;-60
2023/06/12 00:36:44;;;;;;;6.80;2.10;;;;;;;13.86;60.45;100679.81;110084;1279;22156;-59
2023/06/12 00:39:15;;;;;;;10.70;2.50;;;;;;;13.79;60.48;100681.87;110092;1273;22913;-59
2023/06/12 00:41:46;;;;;;;9.40;2.20;;;;;;;13.74;60.61;100677.20;110101;1276;22933;-59
2023/06/12 00:44:17;;;;;;;10.70;2.50;;;;;;;13.70;60.80;100677.02;110125;1273;22234;-60
2023/06/12 00:46:48;;;;;;;8.30;1.90;;;;;;;13.67;61.18;100679.71;110109;1267;22216;-58
2023/06/12 00:49:19;;;;;;;8.70;2.50;;;;;;;13.63;61.15;100680.77;110071;1271;22308;-58
2023/06/12 00:51:50;;;;;;;6.60;2.40;;;;;;;13.60;61.78;100683.15;110073;1279;22214;-59
2023/06/12 00:54:21;;;;;;;10.00;2.50;;;;;;;13.58;61.71;100685.52;110096;1274;22139;-59
2023/06/12 00:56:52;;;;;;;10.10;2.80;;;;;;;13.53;61.96;100686.81;110104;1274;22215;-61
2023/06/12 00:59:23;;;;;;;9.80;2.50;;;;;;;13.50;62.14;100683.36;110102;1274;22703;-59
2023/06/12 01:01:54;;;;;;;11.20;2.40;;;;;;;13.46;62.24;100683.66;110041;1274;22223;-59
2023/06/12 01:04:25;;;;;;;10.80;3.10;;;;;;;13.44;62.53;100684.43;110100;1271;22235;-61
2023/06/12 01:07:00;;;;;;;11.70;2.70;;;;;;;13.41;62.71;100683.48;110116;1276;22151;-58
2023/06/12 01:09:41;;;;;;;8.00;2.40;;;;;;;13.36;62.91;100687.04;110112;1271;22320;-61
2023/06/12 01:12:12;;;;;;;11.30;2.90;;;;;;;13.31;62.95;100688.64;110101;1274;22937;-59
2023/06/12 01:14:46;;;;;;;10.10;2.70;;;;;;;13.25;63.14;100687.31;110104;1274;22199;-59
2023/06/12 01:17:18;;;;;;;7.80;2.60;;;;;;;13.18;63.43;100689.10;110108;1274;22189;-58
2023/06/12 01:19:50;;;;;;;7.70;2.60;;;;;;;13.11;63.64;100690.27;110101;1264;22179;-59
2023/06/12 01:22:25;;;;;;;10.80;2.80;;;;;;;13.04;63.84;100691.67;110085;1263;22870;-59
2023/06/12 01:25:17;;;;;;;10.60;2.40;;;;;;;12.97;64.07;100688.02;110080;1279;22157;-59
2023/06/12 01:28:02;;;;;;;8.50;2.90;;;;;;;12.90;64.02;100687.55;110046;1279;22220;-62
2023/06/12 01:31:06;;;;;;;9.20;2.30;;;;;;;12.86;64.35;100686.15;110018;1274;22185;-60
2023/06/12 01:33:40;;;;;;;8.70;2.30;;;;;;;12.81;64.72;100687.65;110100;1279;22195;-60
2023/06/12 01:36:21;;;;;;;9.00;2.70;;;;;;;12.74;64.96;100685.55;110101;1267;22250;-61
2023/06/12 01:38:54;;;;;;;;;;;;;;;12.68;65.07;100689.80;110016;1269;22401;-59
2023/06/12 01:41:28;;;;;;;11.80;2.50;;;;;;;12.60;65.31;100688.70;110128;1264;22288;-59
2023/06/12 01:44:06;;;;;;;7.60;2.60;;;;;;;12.55;65.47;100691.27;110071;1273;22346;-61
2023/06/12 01:46:38;;;;;;;11.10;3.40;;;;;;;12.50;65.59;100687.20;110120;1274;22318;-59
2023/06/12 01:49:09;;;;;;;9.50;2.70;;;;;;;12.46;65.96;100687.98;110094;1272;22113;-61
2023/06/12 01:51:40;;;;;;;7.70;2.60;;;;;;;12.41;66.15;100689.83;110102;1274;22167;-59
2023/06/12 01:54:11;;;;;;;10.60;2.80;;;;;;;12.35;66.33;100690.70;110111;1274;22247;-61
2023/06/12 01:56:42;;;;;;;10.60;2.90;;;;;;;12.31;66.40;100691.17;110089;1274;22330;-59
2023/06/12 01:59:14;;;;;;;10.60;2.70;;;;;;;12.27;66.77;100689.52;110108;1274;22215;-61
2023/06/12 02:01:45;;;;;;;13.00;2.70;;;;;;;12.24;66.78;100689.80;110077;1274;22414;-56
2023/06/12 02:04:17;;;;;;;11.20;3.20;;;;;;;12.19;67.18;100691.21;110096;1271;22463;-58
2023/06/12 02:06:48;;;;;;;9.20;2.60;;;;;;;12.17;67.30;100692.77;110135;1279;22152;-59
2023/06/12 02:09:20;;;;;;;11.10;2.70;;;;;;;12.14;67.49;100693.02;110099;1274;22159;-59
2023/06/12 02:11:50;;;;;;;10.80;3.50;;;;;;;12.12;67.79;100695.02;110075;1274;22146;-59
2023/06/12 02:14:23;;;;;;;10.30;2.60;;;;;;;12.08;67.97;100690.84;110081;1274;22125;-58
2023/06/12 02:16:56;;;;;;;15.20;3.20;;;;;;;12.03;68.18;100695.36;110076;1277;22875;-61
2023/06/12 02:19:28;;;;;;;9.00;3.00;;;;;;;11.99;68.23;100697.96;110108;1271;22246;-59
2023/06/12 02:21:59;;;;;;;8.90;2.70;;;;;;;11.95;68.36;100696.56;110113;1279;22632;-58
2023/06/12 02:24:32;;;;;;;9.50;2.80;;;;;;;11.92;68.52;100700.52;110082;1267;22268;-60
2023/06/12 02:27:03;;;;;;;10.60;3.70;;;;;;;11.89;68.74;100700.21;110120;1264;22835;-59
2023/06/12 02:29:34;;;;;;;12.70;2.80;;;;;;;11.86;68.95;100701.25;110089;1265;22229;-58
2023/06/12 02:32:05;;;;;;;11.00;3.30;;;;;;;11.83;69.07;100702.73;110085;1264;22278;-60
2023/06/12 02:34:36;;;;;;;8.90;2.90;;;;;;;11.81;69.20;100702.23;110134;1267;22901;-60
2023/06/12 02:37:10;;;;;;;9.80;3.00;;;;;;;11.78;69.39;100702.69;110105;1279;22159;-62
2023/06/12 02:39:41;;;;;;;9.30;3.40;;;;;;;11.75;69.70;100698.73;110099;1279;22224;-59
2023/06/12 02:42:11;;;;;;;11.60;2.90;;;;;;;11.74;69.74;100697.48;110092;1274;22209;-60
2023/06/12 02:44:43;;;;;;;10.20;2.70;;;;;;;11.72;70.03;100698.86;110098;1268;22200;-61
2023/06/12 02:47:15;;;;;;;13.60;3.50;;;;;;;11.69;70.31;100697.80;110098;1268;22273;-60
2023/06/12 02:49:47;;;;;;;10.30;2.90;;;;;;;11.68;70.54;100700.82;110122;1267;22158;-60
2023/06/12 02:52:17;;;;;;;11.60;3.30;;;;;;;11.67;70.67;100699.73;110102;1263;23328;-61
2023/06/12 02:54:48;;;;;;;10.40;3.40;;;;;;;11.64;70.94;100699.59;110110;1279;22194;-58
2023/06/12 02:57:19;;;;;;;13.00;3.80;;;;;;;11.63;71.04;100699.25;110089;1274;22874;-58
2023/06/12 02:59:50;;;;;;;12.00;3.10;;;;;;;11.64;71.43;100704.35;110092;1265;22132;-59
2023/06/12 03:02:21;;;;;;;9.90;3.20;;;;;;;11.62;71.54;100707.39;110108;1272;22169;-58
2023/06/12 03:04:52;;;;;;;11.50;3.20;;;;;;;11.62;71.74;100710.36;110074;1276;22295;-58
2023/06/12 03:07:24;;;;;;;12.80;2.40;;;;;;;11.61;72.07;100711.98;110120;1272;22215;-59
2023/06/12 03:09:55;;;;;;;13.10;3.50;;;;;;;11.60;72.07;100710.59;110076;1274;22202;-59
2023/06/12 03:12:26;;;;;;;11.50;3.20;;;;;;;11.59;72.38;100712.80;110103;1274;22147;-58
2023/06/12 03:14:58;;;;;;;9.50;3.10;;;;;;;11.60;72.47;100712.87;110112;1273;22164;-60
2023/06/12 03:17:28;;;;;;;12.30;3.30;;;;;;;11.60;72.81;100711.19;110111;1267;22256;-58
2023/06/12 03:19:59;;;;;;;11.70;3.50;;;;;;;11.60;73.14;100716.89;110136;1268;22976;-62
2023/06/12 03:22:30;;;;;;;10.60;3.30;;;;;;;11.61;73.14;100721.23;110111;1271;23158;-61
2023/06/12 03:25:01;;;;;;;10.50;3.00;;;;;;;11.63;73.50;100725.80;110147;1279;22842;-59
2023/06/12 03:27:32;;;;;;;9.30;3.00;;;;;;;11.65;73.68;100721.73;110079;1277;22388;-60
2023/06/12 03:30:03;;;;;;;12.70;3.60;;;;;;;11.67;73.65;100724.27;110099;1274;22973;-59
2023/06/12 03:32:34;;;;;;;10.40;3.70;;;;;;;11.69;74.03;100724.38;110092;1267;22336;-62
2023/06/12 03:35:06;;;;;;;12.00;3.40;;;;;;;11.72;74.17;100725.86;110118;1267;22245;-58
2023/06/12 03:37:36;;;;;;;12.40;3.90;;;;;;;11.78;74.50;100729.53;110111;1265;22143;-58
2023/06/12 03:40:09;;;;;;;9.50;3.10;;;;;;;11.81;74.70;100729.09;110126;1276;22133;-60
2023/06/12 03:42:40;;;;;;;12.00;3.70;;;;;;;11.84;74.83;100725.83;110112;1279;23022;-60
2023/06/12 03:45:13;;;;;;;10.20;3.40;;;;;;;11.86;75.09;100723.14;110119;1274;22223;-58
2023/06/12 03:47:43;;;;;;;13.80;4.30;;;;;;;11.89;75.51;100724.36;110113;1268;22335;-58
2023/06/12 03:50:14;;;;;;;16.40;3.60;;;;;;;11.93;75.53;100730.52;110099;1268;22784;-62
2023/06/12 03:52:45;;;;;;;16.90;4.60;;;;;;;11.99;75.63;100729.52;110099;1272;22339;-59
2023/06/12 03:55:16;;;;;;;10.10;3.90;;;;;;;12.04;75.71;100728.55;110065;1272;22353;-61
2023/06/12 03:57:47;;;;;;;13.10;3.50;;;;;;;12.08;75.94;100736.33;110125;1273;22647;-62
2023/06/12 04:00:19;;;;;;;15.30;4.40;;;;;;;12.14;76.11;100738.23;110045;1272;22178;-59
2023/06/12 04:02:50;;;;;;;12.60;4.00;;;;;;;12.20;76.45;100738.19;110059;1274;22174;-58
2023/06/12 04:05:22;;;;;;;14.60;4.50;;;;;;;12.27;76.58;100737.30;110064;1264;22372;-58
2023/06/12 04:07:53;;;;;;;20.80;4.90;;;;;;;12.33;76.81;100738.86;110069;1271;23067;-58
2023/06/12 04:10:24;;;;;;;13.70;4.50;;;;;;;12.41;76.94;100744.37;110139;1272;22202;-58
2023/06/12 04:12:57;;;;;;;12.40;3.20;;;;;;;12.49;77.31;100746.91;110170;1279;22198;-56
2023/06/12 04:15:30;;;;;;;11.70;4.00;;;;;;;12.56;77.27;100750.30;110152;1275;22797;-57
2023/06/12 04:18:01;;;;;;;10.70;4.00;;;;;;;12.64;77.38;100749.48;110099;1268;22424;-58
2023/06/12 04:20:33;;;;;;;10.40;3.30;;;;;;;12.72;77.51;100751.13;110083;1265;23096;-58
2023/06/12 04:23:04;;;;;;;10.60;3.80;;;;;;;12.81;77.47;100751.73;110023;1271;22420;-58
2023/06/12 04:25:36;;;;;;;13.10;4.10;;;;;;;12.93;77.22;100754.80;110078;1265;22233;-59
2023/06/12 04:28:13;;;;;;;14.40;3.40;;;;;;;13.04;77.34;100753.33;110116;1274;22172;-62
2023/06/12 04:30:44;;;;;;;14.30;3.90;;;;;;;13.14;77.51;100752.17;110116;1278;22167;-59
2023/06/12 04:33:17;;;;;;;13.10;4.40;;;;;;;13.25;77.49;100751.85;110083;1268;22386;-60
2023/06/12 04:35:49;;;;;;;10.30;3.60;;;;;;;13.37;77.66;100752.96;110141;1274;22215;-60
2023/06/12 04:38:23;;;;;;;13.30;3.90;;;;;;;13.48;77.36;100754.33;110107;1264;23008;-60
2023/06/12 04:40:56;;;;;;;11.70;4.60;;;;;;;13.61;77.18;100754.86;109959;1274;22186;-59
2023/06/12 04:43:28;;;;;;;15.20;4.50;;;;;;;13.73;77.17;100760.14;110114;1272;22140;-58
2023/06/12 04:45:59;;;;;;;14.90;3.80;;;;;;;13.84;77.35;100757.40;110155;1272;22216;-60
2023/06/12 04:48:31;;;;;;;13.90;4.30;;;;;;;13.95;77.19;100759.48;110120;1268;22324;-61
2023/06/12 04:51:02;;;;;;;10.40;3.40;;;;;;;14.09;77.12;100767.69;110107;1274;23140;-59
2023/06/12 04:53:34;;;;;;;12.30;3.60;;;;;;;14.22;76.75;100769.08;110126;1268;22328;-57
2023/06/12 04:56:08;;;;;;;12.20;3.80;;;;;;;14.36;76.57;100768.35;110128;1267;22203;-57
2023/06/12 04:58:41;;;;;;;15.10;3.30;;;;;;;14.48;76.40;100771.21;110125;1268;23097;-60
2023/06/12 05:01:14;;;;;;;13.00;4.10;;;;;;;14.64;76.21;100776.10;110137;1265;22415;-61
2023/06/12 05:03:46;;;;;;;9.60;3.30;;;;;;;14.78;76.09;100778.55;110138;1279;22130;-60
2023/06/12 05:06:17;;;;;;;9.90;3.00;;;;;;;14.90;76.22;100779.33;110134;1274;22432;-61
2023/06/12 05:08:49;;;;;;;10.30;3.30;;;;;;;15.00;75.96;100780.66;110128;1261;22202;-58
2023/06/12 05:11:21;;;;;;;9.10;3.00;;;;;;;15.13;75.58;100778.27;110121;1272;22402;-59
2023/06/12 05:13:52;;;;;;;11.50;3.00;;;;;;;15.26;75.51;100776.64;110097;1272;22405;-58
2023/06/12 05:16:24;;;;;;;7.80;2.40;;;;;;;15.40;75.23;100773.25;110144;1265;22173;-59
2023/06/12 05:18:55;;;;;;;10.80;3.50;;;;;;;15.53;74.98;100775.47;110093;1272;22414;-60
2023/06/12 05:21:27;;;;;;;13.10;3.80;;;;;;;15.64;74.90;100774.31;110123;1277;22261;-59
2023/06/12 05:23:58;;;;;;;13.20;3.30;;;;;;;15.74;74.95;100773.36;110097;1276;22168;-59
2023/06/12 05:26:29;;;;;;;11.20;3.50;;;;;;;15.85;74.75;100766.47;110128;1276;23080;-59
2023/06/12 05:29:02;;;;;;;13.80;3.90;;;;;;;15.97;74.58;100770.69;110120;1274;22206;-57
2023/06/12 05:31:33;;;;;;;12.10;2.90;;;;;;;16.09;74.17;100768.55;110123;1268;22712;-59
2023/06/12 05:34:04;;;;;;;13.40;3.50;;;;;;;16.22;73.76;100764.51;110133;1272;22148;-58
2023/06/12 05:36:35;;;;;;;9.70;3.10;;;;;;;16.35;73.77;100768.65;110195;1277;22332;-61
2023/06/12 05:39:07;;;;;;;9.80;2.80;;;;;;;16.44;73.42;100769.21;110117;1277;22147;-58
2023/06/12 05:41:38;;;;;;;8.60;2.30;;;;;;;16.54;73.40;100768.64;110135;1273;22203;-58
2023/06/12 05:44:10;;;;;;;9.20;2.50;;;;;;;16.67;73.30;100769.81;110127;1268;23071;-60
2023/06/12 05:46:41;;;;;;;11.40;3.20;;;;;;;16.80;72.90;100768.83;110123;1276;22984;-59
2023/06/12 05:49:12;;;;;;;8.50;2.60;;;;;;;16.90;72.75;100767.00;110145;1273;22174;-60
2023/06/12 05:51:44;;;;;;;10.60;2.20;;;;;;;17.00;72.62;100771.89;110130;1279;22858;-58
2023/06/12 05:54:15;;;;;;;11.20;2.30;;;;;;;17.10;72.45;100774.36;110112;1276;22177;-59
2023/06/12 05:56:47;;;;;;;10.90;2.30;;;;;;;17.19;72.45;100778.31;110136;1278;23070;-58
2023/06/12 05:59:18;;;;;;;8.90;2.50;;;;;;;17.29;71.97;100775.45;110135;1263;22180;-59
2023/06/12 06:01:49;;;;;;;12.30;2.60;;;;;;;17.39;71.69;100778.27;110140;1265;22182;-59
2023/06/12 06:04:20;;;;;;;13.20;3.10;;;;;;;17.49;71.66;100776.27;110118;1267;23055;-58
2023/06/12 06:06:52;;;;;;;10.90;2.80;;;;;;;17.60;70.98;100779.58;110082;1276;22309;-58
2023/06/12 06:09:23;;;;;;;10.40;2.40;;;;;;;17.71;70.64;100779.24;110134;1268;22185;-59
2023/06/12 06:11:55;;;;;;;8.10;2.10;;;;;;;17.84;70.28;100784.66;110107;1274;22139;-60
2023/06/12 06:14:26;;;;;;;6.90;2.00;;;;;;;17.95;70.04;100785.77;110129;1272;22540;-60
2023/06/12 06:16:56;;;;;;;11.10;2.10;;;;;;;18.05;69.91;100783.80;110141;1276;22937;-56
2023/06/12 06:19:28;;;;;;;9.40;2.50;;;;;;;18.16;69.64;100786.73;110134;1271;22395;-59
2023/06/12 06:21:59;;;;;;;9.10;2.00;;;;;;;18.30;68.75;100790.35;110122;1279;22802;-56
2023/06/12 06:24:31;;;;;;;8.20;1.80;;;;;;;18.38;68.06;100792.73;110115;1277;23089;-59
2023/06/12 06:27:07;;;;;;;10.70;1.90;;;;;;;18.46;67.74;100794.92;110138;1274;22199;-58
2023/06/12 06:29:38;;;;;;;7.70;2.00;;;;;;;18.55;67.49;100793.81;110107;1273;22336;-58
2023/06/12 06:32:11;;;;;;;13.50;2.90;;;;;;;18.65;66.49;100788.92;110151;1276;22321;-57
2023/06/12 06:34:43;;;;;;;7.80;1.80;;;;;;;18.71;66.39;100790.53;110108;1277;22185;-58
2023/06/12 06:37:15;;;;;;;8.30;2.30;;;;;;;18.79;66.13;100789.00;110128;1269;22328;-58
2023/06/12 06:39:46;;;;;;;8.60;1.90;;;;;;;18.87;65.67;100788.09;110136;1279;22211;-57
2023/06/12 06:42:17;;;;;;;12.40;2.90;;;;;;;18.92;65.32;100789.75;110131;1276;22174;-58
2023/06/12 06:44:49;;;;;;;10.10;1.60;;;;;;;18.98;64.71;100794.86;105973;1277;5448075;-56
2023/06/12 06:47:21;;;;;;;9.90;1.60;;;;;;;19.05;64.26;100793.98;110123;1272;23063;-59
2023/06/12 06:49:52;;;;;;;5.10;1.50;;;;;;;19.12;63.83;100793.73;110104;1276;22259;-58
2023/06/12 06:52:24;;;;;;;9.70;1.70;;;;;;;19.19;62.61;100792.04;110135;1273;22975;-61
2023/06/12 06:54:55;;;;;;;8.00;1.70;;;;;;;19.25;62.53;100789.67;110076;1279;22178;-61
2023/06/12 06:57:26;;;;;;;7.90;1.70;;;;;;;19.31;62.10;100791.28;110116;1273;22170;-58
2023/06/12 06:59:58;;;;;;;7.00;1.30;;;;;;;19.37;61.07;100790.23;110102;1277;22183;-56
2023/06/12 07:02:29;;;;;;;6.60;1.50;;;;;;;19.44;60.62;100793.83;110121;1276;22657;-60
2023/06/12 07:05:00;;;;;;;5.60;1.20;;;;;;;19.51;59.96;100789.45;110119;1275;22178;-56
2023/06/12 07:07:31;;;;;;;9.70;1.50;;;;;;;19.58;59.95;100788.77;110121;1272;23088;-58
2023/06/12 07:10:02;;;;;;;9.70;1.80;;;;;;;19.65;60.02;100786.59;110144;1279;22194;-58
2023/06/12 07:12:33;;;;;;;8.50;1.80;;;;;;;19.70;59.87;100786.08;110136;1278;22271;-61
2023/06/12 07:15:05;;;;;;;6.80;1.60;;;;;;;19.70;59.07;100787.82;110141;1277;22880;-61
2023/06/12 07:17:36;;;;;;;9.00;1.60;;;;;;;19.75;59.10;100789.64;110118;1274;22360;-56
2023/06/12 07:20:10;;;;;;;6.60;1.60;;;;;;;19.77;58.14;100784.67;110129;1277;22210;-62
2023/06/12 07:22:41;;;;;;;9.00;1.90;;;;;;;19.83;58.58;100788.58;110094;1275;23350;-59
2023/06/12 07:25:12;;;;;;;5.90;1.20;;;;;;;19.88;57.40;100784.97;110123;1268;22374;-60
2023/06/12 07:27:43;;;;;;;4.70;1.10;;;;;;;19.84;57.13;100783.25;110137;1279;22613;-58
2023/06/12 07:30:15;;;;;;;8.90;1.20;;;;;;;19.87;56.57;100783.13;110119;1276;22788;-60
2023/06/12 07:32:45;;;;;;;4.50;1.10;;;;;;;19.91;55.21;100781.19;110121;1276;22196;-59
2023/06/12 07:35:17;;;;;;;10.50;1.20;;;;;;;19.90;54.15;100784.45;110111;1273;22165;-57
2023/06/12 07:37:49;;;;;;;3.30;1.00;;;;;;;19.86;53.61;100786.12;110153;1276;22191;-60
2023/06/12 07:40:21;;;;;;;6.20;1.10;;;;;;;19.87;53.70;100782.56;110133;1265;23212;-58
2023/06/12 07:42:52;;;;;;;96.40;11.10;;;;;;;19.88;53.53;100782.65;110093;1279;23366;-60
2023/06/12 07:45:23;;;;;;;72.20;8.30;;;;;;;19.91;53.25;100779.18;110143;1274;22597;-57
2023/06/12 07:47:55;;;;;;;150.80;21.80;;;;;;;19.99;53.59;100778.00;110073;1276;23096;-59
2023/06/12 07:50:26;;;;;;;84.00;9.10;;;;;;;20.12;53.21;100780.95;110151;1278;22194;-56
2023/06/12 07:52:57;;;;;;;13.30;1.50;;;;;;;20.26;52.80;100786.17;110092;1273;22688;-58
2023/06/12 07:55:30;;;;;;;36.00;2.60;;;;;;;20.34;51.16;100787.89;110148;1272;22861;-58
2023/06/12 07:58:01;;;;;;;29.50;2.50;;;;;;;20.38;50.84;100790.26;110139;1274;22218;-58
2023/06/12 08:00:32;;;;;;;32.50;3.20;;;;;;;20.42;50.80;100789.23;110112;1276;22134;-59
2023/06/12 08:03:04;;;;;;;38.70;4.10;;;;;;;20.54;51.21;100791.30;110121;1275;22278;-59
2023/06/12 08:05:35;;;;;;;14.30;1.40;;;;;;;20.70;49.90;100785.45;110099;1261;22813;-59
2023/06/12 08:08:06;;;;;;;7.80;1.20;;;;;;;20.82;49.46;100786.84;110130;1272;22172;-57
2023/06/12 08:10:37;;;;;;;9.40;1.20;;;;;;;20.90;48.92;100785.85;110116;1273;22191;-61
2023/06/12 08:13:08;;;;;;;5.20;1.00;;;;;;;20.93;48.83;100784.92;110129;1276;22129;-61
2023/06/12 08:15:39;;;;;;;7.10;1.00;;;;;;;20.93;48.43;100781.23;110137;1272;22516;-59
2023/06/12 08:18:11;;;;;;;13.20;1.20;;;;;;;20.92;48.61;100782.42;110117;1272;22162;-57
2023/06/12 08:20:42;;;;;;;5.20;1.00;;;;;;;20.97;48.21;100781.67;110139;1273;22210;-62
2023/06/12 08:23:13;;;;;;;7.50;1.20;;;;;;;21.00;47.71;100774.09;110106;1273;22474;-62
2023/06/12 08:25:44;;;;;;;12.10;1.20;;;;;;;20.95;47.54;100777.35;110140;1276;22437;-58
2023/06/12 08:28:15;;;;;;;5.60;1.10;;;;;;;20.92;47.70;100775.39;110132;1272;23096;-60
2023/06/12 08:30:46;;;;;;;4.40;1.00;;;;;;;20.85;47.39;100774.20;110117;1278;22216;-58
2023/06/12 08:33:18;;;;;;;5.50;1.00;;;;;;;20.80;47.22;100772.26;110107;1268;22907;-61
2023/06/12 08:35:50;;;;;;;5.20;1.10;;;;;;;20.76;47.28;100773.92;110107;1273;22157;-59
2023/06/12 08:38:20;;;;;;;5.70;1.20;;;;;;;20.67;46.84;100777.05;110132;1273;22276;-59
2023/06/12 08:40:55;;;;;;;4.00;1.00;;;;;;;20.58;47.34;100777.88;110161;1269;22142;-60
2023/06/12 08:43:28;;;;;;;5.70;1.20;;;;;;;20.53;46.71;100778.48;110131;1273;22343;-58
2023/06/12 08:46:02;;;;;;;4.60;1.20;;;;;;;20.46;46.84;100779.95;110143;1279;23320;-60
2023/06/12 08:48:35;;;;;;;4.80;1.10;;;;;;;20.44;47.30;100777.25;110125;1273;22511;-60
2023/06/12 08:51:07;;;;;;;4.70;1.20;;;;;;;20.44;47.35;100776.20;110124;1274;22899;-58
2023/06/12 08:53:39;;;;;;;6.20;1.30;;;;;;;20.42;47.12;100773.29;110118;1276;22406;-56
2023/06/12 08:56:13;;;;;;;6.20;1.10;;;;;;;20.47;46.98;100771.44;110113;1277;22422;-60
2023/06/12 08:58:44;;;;;;;5.80;1.20;;;;;;;20.48;46.92;100771.98;110142;1275;22289;-60
2023/06/12 09:01:15;;;;;;;4.70;1.30;;;;;;;20.49;46.87;100769.19;110122;1271;23272;-58
2023/06/12 09:03:56;;;;;;;16.80;4.40;;;;;;;20.48;46.74;100767.64;110137;1279;22199;-58
2023/06/12 09:06:28;;;;;;;27.60;6.70;;;;;;;20.50;47.10;100761.02;110110;1276;22171;-59
2023/06/12 09:08:59;;;;;;;34.30;9.20;;;;;;;20.51;46.83;100759.71;110113;1276;22159;-60
2023/06/12 09:11:30;;;;;;;58.40;16.40;;;;;;;20.54;46.93;100754.66;110101;1271;22344;-58
2023/06/12 09:14:04;;;;;;;29.00;6.50;;;;;;;20.64;46.52;100758.46;110113;1279;22189;-61
2023/06/12 09:16:35;;;;;;;12.60;2.00;;;;;;;20.74;46.39;100754.05;110108;1272;22225;-61
2023/06/12 09:19:06;;;;;;;4.70;1.20;;;;;;;20.81;45.67;100753.73;110110;1279;22878;-60
2023/06/12 09:21:37;;;;;;;9.30;1.30;;;;;;;20.81;46.49;100752.65;110020;1271;22330;-58
2023/06/12 09:24:10;;;;;;;9.00;1.50;;;;;;;20.88;46.47;100745.98;110098;1273;23092;-59
2023/06/12 09:26:44;;;;;;;9.30;1.80;;;;;;;21.01;46.22;100738.17;110113;1277;23075;-61
2023/06/12 09:29:15;;;;;;;7.30;1.50;;;;;;;21.14;45.60;100741.06;110084;1276;22199;-60
2023/06/12 09:31:51;;;;;;;5.80;1.60;;;;;;;21.25;45.75;100738.41;110104;1279;22894;-58
2023/06/12 09:34:23;;;;;;;5.90;1.20;;;;;;;21.37;45.50;100732.52;110136;1271;22310;-59
2023/06/12 09:36:55;;;;;;;6.10;1.30;;;;;;;21.47;45.44;100733.34;110068;1276;22192;-60
2023/06/12 09:39:30;;;;;;;9.00;1.50;;;;;;;21.49;45.19;100731.22;110110;1276;22670;-61
2023/06/12 09:42:02;;;;;;;7.00;1.50;;;;;;;21.52;45.04;100731.48;110106;1276;22201;-60
2023/06/12 09:44:33;;;;;;;11.80;2.20;;;;;;;21.50;45.01;100730.98;110122;1264;22134;-59
2023/06/12 09:47:06;;;;;;;6.70;1.20;;;;;;;21.50;44.99;100729.10;110090;1276;22184;-61
2023/06/12 09:49:37;;;;;;;11.40;1.60;;;;;;;21.48;44.88;100729.08;110111;1276;23144;-60
2023/06/12 09:52:09;;;;;;;9.10;1.30;;;;;;;21.44;44.82;100728.67;110096;1275;23427;-61
2023/06/12 09:54:44;;;;;;;11.50;1.40;;;;;;;21.38;44.36;100726.84;110104;1272;22895;-61
2023/06/12 09:57:16;;;;;;;8.00;1.30;;;;;;;21.34;44.40;100724.78;110125;1276;22200;-59
2023/06/12 09:59:49;;;;;;;6.10;1.10;;;;;;;21.31;44.21;100724.66;110109;1276;22208;-61
2023/06/12 10:02:20;;;;;;;8.00;1.30;;;;;;;21.30;44.21;100725.77;110126;1276;23065;-60
2023/06/12 10:04:59;;;;;;;8.30;1.50;;;;;;;21.29;44.24;100725.12;110058;1274;22164;-60
2023/06/12 10:07:33;;;;;;;7.30;1.40;;;;;;;21.28;44.26;100722.45;110106;1273;22324;-60
2023/06/12 10:10:07;;;;;;;10.30;1.30;;;;;;;21.26;44.06;100720.98;110111;1273;22207;-59
2023/06/12 10:12:39;;;;;;;6.70;1.30;;;;;;;21.23;43.90;100715.06;110116;1278;22935;-59
2023/06/12 10:15:12;;;;;;;6.50;1.00;;;;;;;21.21;44.08;100713.96;110125;1276;22859;-60
2023/06/12 10:17:43;;;;;;;5.00;1.00;;;;;;;21.27;43.97;100708.49;110124;1274;22158;-59
2023/06/12 10:20:19;;;;;;;5.10;1.00;;;;;;;21.31;43.54;100706.30;110108;1276;22167;-59
2023/06/12 10:22:50;;;;;;;5.60;1.10;;;;;;;21.35;43.50;100703.80;110054;1274;22363;-60
2023/06/12 10:25:22;;;;;;;5.70;1.20;;;;;;;21.44;43.66;100699.70;110098;1272;22184;-59
2023/06/12 10:27:55;;;;;;;9.90;1.50;;;;;;;21.58;43.20;100697.65;110120;1279;22163;-59
2023/06/12 10:30:27;;;;;;;2.80;0.90;;;;;;;21.69;42.96;100693.60;110083;1276;22982;-59
2023/06/12 10:33:13;;;;;;;8.60;1.20;;;;;;;21.72;42.50;100694.06;110137;1276;22941;-61
2023/06/12 10:35:44;;;;;;;8.50;1.00;;;;;;;21.71;42.82;100689.13;110100;1274;22202;-59
2023/06/12 10:38:15;;;;;;;8.10;1.20;;;;;;;21.77;42.62;100685.81;110112;1273;22282;-60
2023/06/12 10:40:50;;;;;;;7.30;1.20;;;;;;;21.86;42.89;100686.29;110121;1270;22928;-61
2023/06/12 10:43:27;;;;;;;4.70;1.00;;;;;;;21.93;42.10;100676.44;110101;1272;22200;-59
2023/06/12 10:46:00;;;;;;;6.00;1.20;;;;;;;21.91;42.26;100675.12;110111;1274;23052;-61
2023/06/12 10:48:51;;;;;;;5.90;1.00;;;;;;;21.97;42.25;100668.80;110097;1276;22416;-59
2023/06/12 10:51:35;;;;;;;5.10;1.20;;;;;;;22.07;41.21;100668.84;110114;1270;22870;-61
2023/06/12 10:54:16;;;;;;;7.50;1.50;;;;;;;22.12;40.56;100667.40;110078;1274;22158;-60
2023/06/12 10:57:21;;;;;;;7.80;1.30;;;;;;;22.15;40.58;100661.36;110128;1276;22999;-59
2023/06/12 10:59:58;;;;;;;5.70;0.90;;;;;;;22.25;40.03;100655.00;110040;1276;22169;-59
2023/06/12 11:02:29;;;;;;;8.50;1.30;;;;;;;22.32;39.68;100652.10;110140;1273;23007;-59
2023/06/12 11:05:05;;;;;;;8.80;1.20;;;;;;;22.37;39.38;100648.79;110095;1276;22356;-59
2023/06/12 11:07:37;;;;;;;6.30;1.00;;;;;;;22.38;39.21;100650.30;110096;1273;22803;-59
2023/06/12 11:10:12;;;;;;;6.20;1.10;;;;;;;22.38;38.33;100648.45;110091;1277;22328;-62
2023/06/12 11:12:51;;;;;;;7.80;1.70;;;;;;;22.30;38.32;100648.70;110124;1270;22338;-61
2023/06/12 11:15:22;;;;;;;5.70;0.90;;;;;;;22.29;38.26;100646.04;110129;1273;22211;-60
2023/06/12 11:17:54;;;;;;;4.40;1.00;;;;;;;22.28;38.02;100643.45;110104;1279;22605;-61
2023/06/12 11:20:27;;;;;;;5.00;1.30;;;;;;;22.28;38.39;100639.42;110146;1274;22381;-61
2023/06/12 11:23:02;;;;;;;4.70;1.10;;;;;;;22.31;38.15;100635.02;110089;1273;22168;-60
2023/06/12 11:25:45;;;;;;;6.60;1.20;;;;;;;22.33;37.82;100631.36;110114;1273;22909;-56
2023/06/12 11:28:19;;;;;;;5.70;1.20;;;;;;;22.39;38.00;100624.75;110086;1273;22348;-59
2023/06/12 11:30:51;;;;;;;7.00;1.20;;;;;;;22.46;37.31;100625.05;110093;1278;22158;-59
2023/06/12 11:33:22;;;;;;;5.10;1.00;;;;;;;22.48;36.58;100620.95;110125;1276;22219;-60
2023/06/12 11:35:59;;;;;;;3.70;0.90;;;;;;;22.44;36.70;100619.35;110083;1277;22171;-58
2023/06/12 11:38:31;;;;;;;6.70;1.00;;;;;;;22.34;36.69;100614.36;110095;1270;22460;-59